Orbital elements of BREEZE-M R/B
| Launched | 19 March 2010 |
| Flight ended | – |
| Launch site | Tyuratam Missile and Space Center, Kazakhstan (Also known as Baikonur Cosmodrome) |
| Owner | Commonwealth of Independent States (former USSR) |
| NORAD ID | 36500 |
| Date fetched |
Epoch osculation |
Inc. [°] |
Ecc. | RA asc node [hr] |
Arg Peri. [°] |
Mean anom [°] |
Mean motion [rev/day] |
Abs. mag |
| Date fetched |
Epoch osculation |
Inc. [°] |
Ecc. | RA asc node [hr] |
Arg Peri. [°] |
Mean anom [°] |
Mean motion [rev/day] |
Abs. mag |
| 2026 May 05 17:57 | 2026 May 04 05:11:53 | 25.8898 | 0.64314 | 13.1074 | 89.9572 | 338.2336 | 2.24380 | 4.743 |
| 2026 May 04 17:57 | 2026 Apr 30 04:57:13 | 25.8897 | 0.64318 | 13.1716 | 88.3746 | 338.2336 | 2.24380 | 4.743 |
| 2026 May 03 17:57 | 2026 Apr 30 04:57:13 | 25.8897 | 0.64318 | 13.1716 | 88.3746 | 338.2336 | 2.24380 | 4.743 |
| 2026 May 02 17:57 | 2026 Apr 30 04:57:13 | 25.8897 | 0.64318 | 13.1716 | 88.3746 | 338.2336 | 2.24380 | 4.743 |
| 2026 May 01 17:56 | 2026 Apr 30 04:57:13 | 25.8897 | 0.64318 | 13.1716 | 88.3746 | 338.2336 | 2.24380 | 4.743 |
| 2026 Apr 30 17:56 | 2026 Apr 30 04:57:13 | 25.8897 | 0.64318 | 13.1716 | 88.3746 | 338.2336 | 2.24380 | 4.743 |
| 2026 Apr 29 17:57 | 2026 Apr 24 09:56:01 | 25.8906 | 0.64323 | 13.2645 | 86.0861 | 338.2336 | 2.24380 | 4.743 |
| 2026 Apr 28 17:56 | 2026 Apr 24 09:56:01 | 25.8906 | 0.64323 | 13.2645 | 86.0861 | 338.2336 | 2.24380 | 4.743 |
| 2026 Apr 27 17:58 | 2026 Apr 24 09:56:01 | 25.8906 | 0.64323 | 13.2645 | 86.0861 | 338.2336 | 2.24380 | 4.743 |
| 2026 Apr 26 17:58 | 2026 Apr 24 09:56:01 | 25.8906 | 0.64323 | 13.2645 | 86.0861 | 338.2336 | 2.24380 | 4.743 |
| 2026 Apr 25 17:58 | 2026 Apr 24 09:56:01 | 25.8906 | 0.64323 | 13.2645 | 86.0861 | 338.2336 | 2.24380 | 4.743 |
| 2026 Apr 24 17:59 | 2026 Apr 24 09:56:01 | 25.8906 | 0.64323 | 13.2645 | 86.0861 | 338.2336 | 2.24380 | 4.743 |
| 2026 Apr 23 17:57 | 2026 Apr 19 12:18:00 | 25.8929 | 0.64327 | 13.3432 | 84.1492 | 338.2336 | 2.24380 | 4.743 |
| 2026 Apr 22 17:57 | 2026 Apr 19 12:18:00 | 25.8929 | 0.64327 | 13.3432 | 84.1492 | 338.2336 | 2.24380 | 4.743 |
| 2026 Apr 21 17:57 | 2026 Apr 19 12:18:00 | 25.8929 | 0.64327 | 13.3432 | 84.1492 | 338.2336 | 2.24380 | 4.743 |
| 2026 Apr 20 17:57 | 2026 Apr 19 12:18:00 | 25.8929 | 0.64327 | 13.3432 | 84.1492 | 338.2336 | 2.24380 | 4.743 |
| 2026 Apr 19 17:58 | 2026 Apr 19 12:18:00 | 25.8929 | 0.64327 | 13.3432 | 84.1492 | 338.2336 | 2.24380 | 4.743 |
| 2026 Apr 18 17:56 | 2026 Apr 13 06:35:01 | 25.8966 | 0.64332 | 13.4432 | 81.6856 | 338.2336 | 2.24380 | 4.743 |
| 2026 Apr 16 17:57 | 2026 Apr 13 06:35:01 | 25.8966 | 0.64332 | 13.4432 | 81.6856 | 338.2336 | 2.24380 | 4.743 |
| 2026 Apr 14 17:57 | 2026 Apr 13 06:35:01 | 25.8966 | 0.64332 | 13.4432 | 81.6856 | 338.2336 | 2.24380 | 4.743 |
| 2026 Apr 13 17:57 | 2026 Apr 13 06:35:01 | 25.8966 | 0.64332 | 13.4432 | 81.6856 | 338.2336 | 2.24380 | 4.743 |
| 2026 Apr 12 17:57 | 2026 Apr 08 08:56:53 | 25.9006 | 0.64334 | 13.5217 | 79.7520 | 338.2336 | 2.24380 | 4.743 |
| 2026 Apr 11 17:57 | 2026 Apr 08 08:56:53 | 25.9006 | 0.64334 | 13.5217 | 79.7520 | 338.2336 | 2.24380 | 4.743 |
| 2026 Apr 10 17:58 | 2026 Apr 08 08:56:53 | 25.9006 | 0.64334 | 13.5217 | 79.7520 | 338.2336 | 2.24380 | 4.743 |
| 2026 Apr 09 18:01 | 2026 Apr 08 08:56:53 | 25.9006 | 0.64334 | 13.5217 | 79.7520 | 338.2336 | 2.24380 | 4.743 |
| 2026 Apr 08 17:57 | 2026 Apr 08 08:56:53 | 25.9006 | 0.64334 | 13.5217 | 79.7520 | 338.2336 | 2.24380 | 4.743 |